sensor_id;sensor_type;location;lat;lon;timestamp;P1;durP1;ratioP1;P2;durP2;ratioP2
60243;SDS011;46106;51.468;5.814;2023-12-20T00:00:00;45.20;;;15.27;;
60243;SDS011;46106;51.468;5.814;2023-12-20T00:02:25;39.65;;;14.82;;
60243;SDS011;46106;51.468;5.814;2023-12-20T00:04:51;33.60;;;15.15;;
60243;SDS011;46106;51.468;5.814;2023-12-20T00:07:16;40.33;;;14.60;;
60243;SDS011;46106;51.468;5.814;2023-12-20T00:09:42;35.65;;;13.60;;
60243;SDS011;46106;51.468;5.814;2023-12-20T00:12:08;44.17;;;14.10;;
60243;SDS011;46106;51.468;5.814;2023-12-20T00:14:34;42.17;;;12.48;;
60243;SDS011;46106;51.468;5.814;2023-12-20T00:17:00;44.38;;;13.57;;
60243;SDS011;46106;51.468;5.814;2023-12-20T00:19:28;33.53;;;10.75;;
60243;SDS011;46106;51.468;5.814;2023-12-20T00:21:54;26.88;;;9.95;;
60243;SDS011;46106;51.468;5.814;2023-12-20T00:24:20;35.60;;;10.40;;
60243;SDS011;46106;51.468;5.814;2023-12-20T00:26:45;34.17;;;10.00;;
60243;SDS011;46106;51.468;5.814;2023-12-20T00:29:11;38.50;;;10.27;;
60243;SDS011;46106;51.468;5.814;2023-12-20T00:31:37;40.42;;;9.40;;
60243;SDS011;46106;51.468;5.814;2023-12-20T00:34:02;39.60;;;8.32;;
60243;SDS011;46106;51.468;5.814;2023-12-20T00:36:28;31.25;;;7.78;;
60243;SDS011;46106;51.468;5.814;2023-12-20T00:38:53;38.63;;;9.70;;
60243;SDS011;46106;51.468;5.814;2023-12-20T00:41:18;34.92;;;7.75;;
60243;SDS011;46106;51.468;5.814;2023-12-20T00:43:44;24.60;;;7.72;;
60243;SDS011;46106;51.468;5.814;2023-12-20T00:46:10;35.30;;;8.43;;
60243;SDS011;46106;51.468;5.814;2023-12-20T00:48:35;36.72;;;6.93;;
60243;SDS011;46106;51.468;5.814;2023-12-20T00:51:00;43.13;;;6.93;;
60243;SDS011;46106;51.468;5.814;2023-12-20T00:53:27;31.80;;;6.85;;
60243;SDS011;46106;51.468;5.814;2023-12-20T00:55:54;29.23;;;5.20;;
60243;SDS011;46106;51.468;5.814;2023-12-20T00:58:19;28.95;;;5.95;;
60243;SDS011;46106;51.468;5.814;2023-12-20T01:00:45;31.60;;;5.07;;
60243;SDS011;46106;51.468;5.814;2023-12-20T01:03:13;40.47;;;6.63;;
60243;SDS011;46106;51.468;5.814;2023-12-20T01:05:40;28.83;;;5.22;;
60243;SDS011;46106;51.468;5.814;2023-12-20T01:08:06;31.00;;;5.28;;
60243;SDS011;46106;51.468;5.814;2023-12-20T01:10:31;24.13;;;5.68;;
60243;SDS011;46106;51.468;5.814;2023-12-20T01:12:57;21.92;;;4.28;;
60243;SDS011;46106;51.468;5.814;2023-12-20T01:15:23;36.00;;;4.47;;
60243;SDS011;46106;51.468;5.814;2023-12-20T01:17:49;28.52;;;4.25;;
60243;SDS011;46106;51.468;5.814;2023-12-20T01:20:15;30.65;;;3.70;;
60243;SDS011;46106;51.468;5.814;2023-12-20T01:22:43;35.63;;;3.58;;
60243;SDS011;46106;51.468;5.814;2023-12-20T01:25:10;37.45;;;4.38;;
60243;SDS011;46106;51.468;5.814;2023-12-20T01:27:37;32.65;;;3.10;;
60243;SDS011;46106;51.468;5.814;2023-12-20T01:30:05;25.17;;;3.35;;
60243;SDS011;46106;51.468;5.814;2023-12-20T01:32:31;28.00;;;3.60;;
60243;SDS011;46106;51.468;5.814;2023-12-20T01:34:58;20.85;;;3.25;;
60243;SDS011;46106;51.468;5.814;2023-12-20T01:37:23;17.58;;;3.58;;
60243;SDS011;46106;51.468;5.814;2023-12-20T01:39:54;15.60;;;2.75;;
60243;SDS011;46106;51.468;5.814;2023-12-20T01:42:19;28.95;;;3.38;;
60243;SDS011;46106;51.468;5.814;2023-12-20T01:44:45;25.75;;;3.55;;
60243;SDS011;46106;51.468;5.814;2023-12-20T01:47:10;23.35;;;3.83;;
60243;SDS011;46106;51.468;5.814;2023-12-20T01:49:37;22.98;;;3.97;;
60243;SDS011;46106;51.468;5.814;2023-12-20T01:52:03;30.67;;;3.28;;
60243;SDS011;46106;51.468;5.814;2023-12-20T01:54:28;24.98;;;3.15;;
60243;SDS011;46106;51.468;5.814;2023-12-20T01:56:54;20.83;;;2.67;;
60243;SDS011;46106;51.468;5.814;2023-12-20T01:59:20;25.23;;;3.65;;
60243;SDS011;46106;51.468;5.814;2023-12-20T02:01:46;32.85;;;4.05;;
60243;SDS011;46106;51.468;5.814;2023-12-20T02:04:12;19.90;;;2.80;;
60243;SDS011;46106;51.468;5.814;2023-12-20T02:06:38;25.35;;;3.20;;
60243;SDS011;46106;51.468;5.814;2023-12-20T02:09:05;21.73;;;3.38;;
60243;SDS011;46106;51.468;5.814;2023-12-20T02:11:32;17.30;;;2.60;;
60243;SDS011;46106;51.468;5.814;2023-12-20T02:13:58;26.83;;;3.40;;
60243;SDS011;46106;51.468;5.814;2023-12-20T02:16:24;21.38;;;3.08;;
60243;SDS011;46106;51.468;5.814;2023-12-20T02:18:49;17.00;;;2.85;;
60243;SDS011;46106;51.468;5.814;2023-12-20T02:21:17;18.55;;;3.15;;
60243;SDS011;46106;51.468;5.814;2023-12-20T02:23:43;19.40;;;3.00;;
60243;SDS011;46106;51.468;5.814;2023-12-20T02:26:08;24.17;;;4.25;;
60243;SDS011;46106;51.468;5.814;2023-12-20T02:28:34;28.35;;;4.05;;
60243;SDS011;46106;51.468;5.814;2023-12-20T02:31:00;19.27;;;3.30;;
60243;SDS011;46106;51.468;5.814;2023-12-20T02:33:25;25.73;;;3.10;;
60243;SDS011;46106;51.468;5.814;2023-12-20T02:35:50;30.80;;;3.88;;
60243;SDS011;46106;51.468;5.814;2023-12-20T02:38:19;30.15;;;2.95;;
60243;SDS011;46106;51.468;5.814;2023-12-20T02:40:45;25.05;;;3.85;;
60243;SDS011;46106;51.468;5.814;2023-12-20T02:43:11;30.25;;;3.40;;
60243;SDS011;46106;51.468;5.814;2023-12-20T02:45:37;27.05;;;4.40;;
60243;SDS011;46106;51.468;5.814;2023-12-20T02:48:04;29.02;;;3.90;;
60243;SDS011;46106;51.468;5.814;2023-12-20T02:50:29;25.30;;;4.90;;
60243;SDS011;46106;51.468;5.814;2023-12-20T02:52:55;33.30;;;4.35;;
60243;SDS011;46106;51.468;5.814;2023-12-20T02:55:20;29.50;;;4.30;;
60243;SDS011;46106;51.468;5.814;2023-12-20T02:57:46;13.95;;;3.50;;
60243;SDS011;46106;51.468;5.814;2023-12-20T03:00:12;22.80;;;3.50;;
60243;SDS011;46106;51.468;5.814;2023-12-20T03:02:39;26.25;;;3.03;;
60243;SDS011;46106;51.468;5.814;2023-12-20T03:05:05;19.30;;;3.20;;
60243;SDS011;46106;51.468;5.814;2023-12-20T03:07:31;17.00;;;3.17;;
60243;SDS011;46106;51.468;5.814;2023-12-20T03:09:56;33.55;;;3.40;;
60243;SDS011;46106;51.468;5.814;2023-12-20T03:12:22;21.60;;;3.30;;
60243;SDS011;46106;51.468;5.814;2023-12-20T03:14:48;32.47;;;3.88;;
60243;SDS011;46106;51.468;5.814;2023-12-20T03:17:14;19.27;;;3.38;;
60243;SDS011;46106;51.468;5.814;2023-12-20T03:19:40;23.83;;;3.85;;
60243;SDS011;46106;51.468;5.814;2023-12-20T03:22:05;22.63;;;3.35;;
60243;SDS011;46106;51.468;5.814;2023-12-20T03:24:30;25.80;;;4.30;;
60243;SDS011;46106;51.468;5.814;2023-12-20T03:26:56;25.85;;;3.38;;
60243;SDS011;46106;51.468;5.814;2023-12-20T03:29:22;24.40;;;3.30;;
60243;SDS011;46106;51.468;5.814;2023-12-20T03:31:48;21.88;;;3.65;;
60243;SDS011;46106;51.468;5.814;2023-12-20T03:34:14;23.30;;;3.20;;
60243;SDS011;46106;51.468;5.814;2023-12-20T03:36:39;17.67;;;3.38;;
60243;SDS011;46106;51.468;5.814;2023-12-20T03:39:05;17.42;;;4.32;;
60243;SDS011;46106;51.468;5.814;2023-12-20T03:41:30;26.55;;;3.95;;
60243;SDS011;46106;51.468;5.814;2023-12-20T03:43:56;25.38;;;3.20;;
60243;SDS011;46106;51.468;5.814;2023-12-20T03:46:22;27.90;;;3.70;;
60243;SDS011;46106;51.468;5.814;2023-12-20T03:48:48;32.88;;;4.15;;
60243;SDS011;46106;51.468;5.814;2023-12-20T03:51:13;27.23;;;4.63;;
60243;SDS011;46106;51.468;5.814;2023-12-20T03:53:38;24.13;;;4.53;;
60243;SDS011;46106;51.468;5.814;2023-12-20T03:56:05;28.88;;;5.07;;
60243;SDS011;46106;51.468;5.814;2023-12-20T03:58:31;28.65;;;5.97;;
60243;SDS011;46106;51.468;5.814;2023-12-20T04:00:56;30.30;;;4.80;;
60243;SDS011;46106;51.468;5.814;2023-12-20T04:03:23;32.85;;;5.35;;
60243;SDS011;46106;51.468;5.814;2023-12-20T04:05:48;27.90;;;4.88;;
60243;SDS011;46106;51.468;5.814;2023-12-20T04:08:14;39.10;;;6.13;;
60243;SDS011;46106;51.468;5.814;2023-12-20T04:10:39;25.48;;;5.57;;
60243;SDS011;46106;51.468;5.814;2023-12-20T04:13:05;35.13;;;7.18;;
60243;SDS011;46106;51.468;5.814;2023-12-20T04:15:32;39.42;;;7.05;;
60243;SDS011;46106;51.468;5.814;2023-12-20T04:17:57;41.58;;;7.03;;
60243;SDS011;46106;51.468;5.814;2023-12-20T04:20:23;38.17;;;6.38;;
60243;SDS011;46106;51.468;5.814;2023-12-20T04:22:48;26.92;;;5.57;;
60243;SDS011;46106;51.468;5.814;2023-12-20T04:25:13;29.35;;;5.80;;
60243;SDS011;46106;51.468;5.814;2023-12-20T04:27:39;24.13;;;5.55;;
60243;SDS011;46106;51.468;5.814;2023-12-20T04:30:08;33.00;;;6.50;;
60243;SDS011;46106;51.468;5.814;2023-12-20T04:32:34;36.55;;;6.35;;
60243;SDS011;46106;51.468;5.814;2023-12-20T04:35:00;33.90;;;5.97;;
60243;SDS011;46106;51.468;5.814;2023-12-20T04:37:26;36.83;;;6.55;;
60243;SDS011;46106;51.468;5.814;2023-12-20T04:39:52;34.17;;;6.10;;
60243;SDS011;46106;51.468;5.814;2023-12-20T04:42:17;30.45;;;5.65;;
60243;SDS011;46106;51.468;5.814;2023-12-20T04:44:43;25.45;;;6.05;;
60243;SDS011;46106;51.468;5.814;2023-12-20T04:47:10;36.78;;;6.63;;
60243;SDS011;46106;51.468;5.814;2023-12-20T04:49:36;50.03;;;6.95;;
60243;SDS011;46106;51.468;5.814;2023-12-20T04:52:01;35.85;;;6.15;;
60243;SDS011;46106;51.468;5.814;2023-12-20T04:54:27;31.45;;;5.75;;
60243;SDS011;46106;51.468;5.814;2023-12-20T04:56:52;31.80;;;6.18;;
60243;SDS011;46106;51.468;5.814;2023-12-20T04:59:19;34.78;;;6.15;;
60243;SDS011;46106;51.468;5.814;2023-12-20T05:01:44;31.25;;;5.97;;
60243;SDS011;46106;51.468;5.814;2023-12-20T05:04:10;42.10;;;5.53;;
60243;SDS011;46106;51.468;5.814;2023-12-20T05:06:35;35.13;;;6.38;;
60243;SDS011;46106;51.468;5.814;2023-12-20T05:09:00;27.85;;;5.70;;
60243;SDS011;46106;51.468;5.814;2023-12-20T05:11:27;25.73;;;5.30;;
60243;SDS011;46106;51.468;5.814;2023-12-20T05:13:53;25.92;;;6.72;;
60243;SDS011;46106;51.468;5.814;2023-12-20T05:16:18;27.52;;;5.45;;
60243;SDS011;46106;51.468;5.814;2023-12-20T05:18:45;40.90;;;6.38;;
60243;SDS011;46106;51.468;5.814;2023-12-20T05:21:10;29.20;;;5.35;;
60243;SDS011;46106;51.468;5.814;2023-12-20T05:23:36;37.20;;;6.07;;
60243;SDS011;46106;51.468;5.814;2023-12-20T05:26:01;28.20;;;5.38;;
60243;SDS011;46106;51.468;5.814;2023-12-20T05:28:28;40.67;;;5.35;;
60243;SDS011;46106;51.468;5.814;2023-12-20T05:30:54;33.70;;;5.40;;
60243;SDS011;46106;51.468;5.814;2023-12-20T05:33:19;23.67;;;5.60;;
60243;SDS011;46106;51.468;5.814;2023-12-20T05:35:44;28.88;;;5.40;;
60243;SDS011;46106;51.468;5.814;2023-12-20T05:38:11;33.53;;;5.53;;
60243;SDS011;46106;51.468;5.814;2023-12-20T05:40:36;35.22;;;6.43;;
60243;SDS011;46106;51.468;5.814;2023-12-20T05:43:02;34.17;;;6.18;;
60243;SDS011;46106;51.468;5.814;2023-12-20T05:45:29;22.27;;;4.95;;
60243;SDS011;46106;51.468;5.814;2023-12-20T05:47:54;21.52;;;5.38;;
60243;SDS011;46106;51.468;5.814;2023-12-20T05:50:20;26.58;;;5.50;;
60243;SDS011;46106;51.468;5.814;2023-12-20T05:52:46;32.63;;;5.93;;
60243;SDS011;46106;51.468;5.814;2023-12-20T05:55:11;19.85;;;4.75;;
60243;SDS011;46106;51.468;5.814;2023-12-20T05:57:37;42.58;;;5.10;;
60243;SDS011;46106;51.468;5.814;2023-12-20T06:00:03;29.55;;;5.00;;
60243;SDS011;46106;51.468;5.814;2023-12-20T06:02:30;34.45;;;5.68;;
60243;SDS011;46106;51.468;5.814;2023-12-20T06:04:56;23.80;;;4.65;;
60243;SDS011;46106;51.468;5.814;2023-12-20T06:07:23;32.63;;;5.75;;
60243;SDS011;46106;51.468;5.814;2023-12-20T06:09:48;32.88;;;5.20;;
60243;SDS011;46106;51.468;5.814;2023-12-20T06:12:15;34.28;;;5.50;;
60243;SDS011;46106;51.468;5.814;2023-12-20T06:14:41;34.13;;;5.32;;
60243;SDS011;46106;51.468;5.814;2023-12-20T06:17:06;34.55;;;6.05;;
60243;SDS011;46106;51.468;5.814;2023-12-20T06:19:32;33.50;;;7.03;;
60243;SDS011;46106;51.468;5.814;2023-12-20T06:21:57;35.15;;;5.82;;
60243;SDS011;46106;51.468;5.814;2023-12-20T06:24:22;31.48;;;5.90;;
60243;SDS011;46106;51.468;5.814;2023-12-20T06:26:52;47.13;;;6.97;;
60243;SDS011;46106;51.468;5.814;2023-12-20T06:29:17;34.20;;;6.43;;
60243;SDS011;46106;51.468;5.814;2023-12-20T06:31:43;35.95;;;6.88;;
60243;SDS011;46106;51.468;5.814;2023-12-20T06:34:08;38.22;;;5.63;;
60243;SDS011;46106;51.468;5.814;2023-12-20T06:36:33;34.95;;;5.63;;
60243;SDS011;46106;51.468;5.814;2023-12-20T06:39:00;22.73;;;5.85;;
60243;SDS011;46106;51.468;5.814;2023-12-20T06:41:25;28.98;;;6.72;;
60243;SDS011;46106;51.468;5.814;2023-12-20T06:43:51;36.65;;;5.65;;
60243;SDS011;46106;51.468;5.814;2023-12-20T06:46:19;39.58;;;5.20;;
60243;SDS011;46106;51.468;5.814;2023-12-20T06:48:45;30.25;;;4.53;;
60243;SDS011;46106;51.468;5.814;2023-12-20T06:51:14;30.45;;;4.40;;
60243;SDS011;46106;51.468;5.814;2023-12-20T06:53:42;26.25;;;5.30;;
60243;SDS011;46106;51.468;5.814;2023-12-20T06:56:07;29.38;;;4.88;;
60243;SDS011;46106;51.468;5.814;2023-12-20T06:58:36;31.83;;;5.07;;
60243;SDS011;46106;51.468;5.814;2023-12-20T07:01:02;26.80;;;5.03;;
60243;SDS011;46106;51.468;5.814;2023-12-20T07:03:35;34.13;;;4.85;;
60243;SDS011;46106;51.468;5.814;2023-12-20T07:06:00;18.95;;;3.95;;
60243;SDS011;46106;51.468;5.814;2023-12-20T07:08:26;27.85;;;4.50;;
60243;SDS011;46106;51.468;5.814;2023-12-20T07:10:52;22.08;;;3.88;;
60243;SDS011;46106;51.468;5.814;2023-12-20T07:13:17;25.88;;;5.07;;
60243;SDS011;46106;51.468;5.814;2023-12-20T07:15:43;25.15;;;4.05;;
60243;SDS011;46106;51.468;5.814;2023-12-20T07:18:09;22.77;;;3.78;;
60243;SDS011;46106;51.468;5.814;2023-12-20T07:20:34;28.90;;;4.63;;
60243;SDS011;46106;51.468;5.814;2023-12-20T07:23:00;28.25;;;4.47;;
60243;SDS011;46106;51.468;5.814;2023-12-20T07:25:25;37.47;;;4.38;;
60243;SDS011;46106;51.468;5.814;2023-12-20T07:27:51;32.97;;;4.15;;
60243;SDS011;46106;51.468;5.814;2023-12-20T07:30:18;27.88;;;3.80;;
60243;SDS011;46106;51.468;5.814;2023-12-20T07:32:43;28.60;;;4.05;;
60243;SDS011;46106;51.468;5.814;2023-12-20T07:35:08;25.23;;;4.05;;
60243;SDS011;46106;51.468;5.814;2023-12-20T07:37:34;30.48;;;4.45;;
60243;SDS011;46106;51.468;5.814;2023-12-20T07:39:59;23.55;;;3.78;;
60243;SDS011;46106;51.468;5.814;2023-12-20T07:42:25;34.83;;;5.00;;
60243;SDS011;46106;51.468;5.814;2023-12-20T07:44:50;45.33;;;6.13;;
60243;SDS011;46106;51.468;5.814;2023-12-20T07:47:15;27.75;;;4.85;;
60243;SDS011;46106;51.468;5.814;2023-12-20T07:49:46;24.67;;;3.00;;
60243;SDS011;46106;51.468;5.814;2023-12-20T07:52:12;20.55;;;3.20;;
60243;SDS011;46106;51.468;5.814;2023-12-20T07:54:39;26.83;;;3.70;;
60243;SDS011;46106;51.468;5.814;2023-12-20T07:57:06;25.85;;;3.85;;
60243;SDS011;46106;51.468;5.814;2023-12-20T07:59:33;18.40;;;4.18;;
60243;SDS011;46106;51.468;5.814;2023-12-20T08:01:58;42.92;;;5.00;;
60243;SDS011;46106;51.468;5.814;2023-12-20T08:04:24;21.48;;;3.30;;
60243;SDS011;46106;51.468;5.814;2023-12-20T08:06:50;24.75;;;4.07;;
60243;SDS011;46106;51.468;5.814;2023-12-20T08:09:15;21.52;;;3.72;;
60243;SDS011;46106;51.468;5.814;2023-12-20T08:11:44;30.13;;;3.60;;
60243;SDS011;46106;51.468;5.814;2023-12-20T08:14:10;25.70;;;4.40;;
60243;SDS011;46106;51.468;5.814;2023-12-20T08:16:36;31.70;;;4.05;;
60243;SDS011;46106;51.468;5.814;2023-12-20T08:19:02;25.38;;;4.20;;
60243;SDS011;46106;51.468;5.814;2023-12-20T08:21:27;24.40;;;3.92;;
60243;SDS011;46106;51.468;5.814;2023-12-20T08:23:53;22.92;;;3.88;;
60243;SDS011;46106;51.468;5.814;2023-12-20T08:26:19;39.28;;;3.85;;
60243;SDS011;46106;51.468;5.814;2023-12-20T08:28:50;21.15;;;3.72;;
60243;SDS011;46106;51.468;5.814;2023-12-20T08:31:17;17.77;;;3.20;;
60243;SDS011;46106;51.468;5.814;2023-12-20T08:33:43;31.77;;;3.78;;
60243;SDS011;46106;51.468;5.814;2023-12-20T08:36:10;34.78;;;4.22;;
60243;SDS011;46106;51.468;5.814;2023-12-20T08:38:35;29.88;;;4.20;;
60243;SDS011;46106;51.468;5.814;2023-12-20T08:41:02;24.13;;;3.47;;
60243;SDS011;46106;51.468;5.814;2023-12-20T08:43:30;30.17;;;3.92;;
60243;SDS011;46106;51.468;5.814;2023-12-20T08:46:01;28.52;;;3.65;;
60243;SDS011;46106;51.468;5.814;2023-12-20T08:48:28;23.73;;;4.00;;
60243;SDS011;46106;51.468;5.814;2023-12-20T08:50:55;20.90;;;4.13;;
60243;SDS011;46106;51.468;5.814;2023-12-20T08:53:21;31.15;;;3.78;;
60243;SDS011;46106;51.468;5.814;2023-12-20T08:55:48;34.65;;;4.20;;
60243;SDS011;46106;51.468;5.814;2023-12-20T08:58:13;20.35;;;3.42;;
60243;SDS011;46106;51.468;5.814;2023-12-20T09:00:39;25.23;;;3.20;;
60243;SDS011;46106;51.468;5.814;2023-12-20T09:03:05;18.23;;;3.45;;
60243;SDS011;46106;51.468;5.814;2023-12-20T09:05:30;24.75;;;3.22;;
60243;SDS011;46106;51.468;5.814;2023-12-20T09:07:56;23.40;;;3.70;;
60243;SDS011;46106;51.468;5.814;2023-12-20T09:10:22;23.30;;;3.60;;
60243;SDS011;46106;51.468;5.814;2023-12-20T09:12:48;22.23;;;3.50;;
60243;SDS011;46106;51.468;5.814;2023-12-20T09:15:16;29.70;;;4.75;;
60243;SDS011;46106;51.468;5.814;2023-12-20T09:17:43;18.30;;;4.22;;
60243;SDS011;46106;51.468;5.814;2023-12-20T09:20:09;20.75;;;3.30;;
60243;SDS011;46106;51.468;5.814;2023-12-20T09:22:34;24.67;;;3.95;;
60243;SDS011;46106;51.468;5.814;2023-12-20T09:25:00;28.88;;;3.80;;
60243;SDS011;46106;51.468;5.814;2023-12-20T09:27:26;26.83;;;3.55;;
60243;SDS011;46106;51.468;5.814;2023-12-20T09:29:52;28.48;;;3.63;;
60243;SDS011;46106;51.468;5.814;2023-12-20T09:32:19;18.67;;;4.03;;
60243;SDS011;46106;51.468;5.814;2023-12-20T09:34:47;22.95;;;3.78;;
60243;SDS011;46106;51.468;5.814;2023-12-20T09:37:13;21.40;;;3.78;;
60243;SDS011;46106;51.468;5.814;2023-12-20T09:39:39;21.58;;;3.13;;
60243;SDS011;46106;51.468;5.814;2023-12-20T09:42:05;21.88;;;3.63;;
60243;SDS011;46106;51.468;5.814;2023-12-20T09:44:32;23.23;;;3.83;;
60243;SDS011;46106;51.468;5.814;2023-12-20T09:46:59;23.45;;;3.80;;
60243;SDS011;46106;51.468;5.814;2023-12-20T09:49:28;29.98;;;3.80;;
60243;SDS011;46106;51.468;5.814;2023-12-20T09:51:55;21.08;;;3.33;;
60243;SDS011;46106;51.468;5.814;2023-12-20T09:54:22;31.35;;;3.70;;
60243;SDS011;46106;51.468;5.814;2023-12-20T09:56:49;23.08;;;3.75;;
60243;SDS011;46106;51.468;5.814;2023-12-20T09:59:16;20.77;;;2.90;;
60243;SDS011;46106;51.468;5.814;2023-12-20T10:01:41;21.70;;;3.80;;
60243;SDS011;46106;51.468;5.814;2023-12-20T10:04:08;23.48;;;3.20;;
60243;SDS011;46106;51.468;5.814;2023-12-20T10:06:37;20.75;;;3.55;;
60243;SDS011;46106;51.468;5.814;2023-12-20T10:11:42;20.35;;;4.25;;
60243;SDS011;46106;51.468;5.814;2023-12-20T10:14:07;22.52;;;3.72;;
60243;SDS011;46106;51.468;5.814;2023-12-20T10:16:32;19.27;;;3.45;;
60243;SDS011;46106;51.468;5.814;2023-12-20T10:18:59;17.40;;;3.00;;
60243;SDS011;46106;51.468;5.814;2023-12-20T10:21:26;31.75;;;3.78;;
60243;SDS011;46106;51.468;5.814;2023-12-20T10:23:53;35.70;;;4.70;;
60243;SDS011;46106;51.468;5.814;2023-12-20T10:26:19;16.23;;;3.25;;
60243;SDS011;46106;51.468;5.814;2023-12-20T10:28:46;14.10;;;3.45;;
60243;SDS011;46106;51.468;5.814;2023-12-20T10:31:25;25.42;;;4.05;;
60243;SDS011;46106;51.468;5.814;2023-12-20T10:33:58;16.50;;;3.47;;
60243;SDS011;46106;51.468;5.814;2023-12-20T10:36:25;19.85;;;4.00;;
60243;SDS011;46106;51.468;5.814;2023-12-20T10:38:52;21.50;;;3.33;;
60243;SDS011;46106;51.468;5.814;2023-12-20T10:41:20;19.30;;;3.83;;
60243;SDS011;46106;51.468;5.814;2023-12-20T10:43:58;24.75;;;4.53;;
60243;SDS011;46106;51.468;5.814;2023-12-20T10:46:29;22.58;;;4.03;;
60243;SDS011;46106;51.468;5.814;2023-12-20T10:48:55;21.08;;;4.25;;
60243;SDS011;46106;51.468;5.814;2023-12-20T10:51:22;25.95;;;4.05;;
60243;SDS011;46106;51.468;5.814;2023-12-20T10:53:49;25.58;;;4.90;;
60243;SDS011;46106;51.468;5.814;2023-12-20T10:56:19;26.33;;;4.25;;
60243;SDS011;46106;51.468;5.814;2023-12-20T10:58:46;16.00;;;3.33;;
60243;SDS011;46106;51.468;5.814;2023-12-20T11:01:13;23.38;;;3.85;;
60243;SDS011;46106;51.468;5.814;2023-12-20T11:03:52;26.55;;;3.92;;
60243;SDS011;46106;51.468;5.814;2023-12-20T11:14:42;23.30;;;3.20;;
60243;SDS011;46106;51.468;5.814;2023-12-20T11:17:12;18.98;;;3.55;;
60243;SDS011;46106;51.468;5.814;2023-12-20T11:22:24;18.52;;;4.00;;
60243;SDS011;46106;51.468;5.814;2023-12-20T11:24:51;25.35;;;3.95;;
60243;SDS011;46106;51.468;5.814;2023-12-20T11:27:18;29.08;;;4.07;;
60243;SDS011;46106;51.468;5.814;2023-12-20T11:29:51;17.45;;;3.33;;
60243;SDS011;46106;51.468;5.814;2023-12-20T11:34:58;19.65;;;3.92;;
60243;SDS011;46106;51.468;5.814;2023-12-20T11:37:36;15.43;;;3.58;;
60243;SDS011;46106;51.468;5.814;2023-12-20T11:40:08;17.52;;;4.10;;
60243;SDS011;46106;51.468;5.814;2023-12-20T11:42:40;15.90;;;4.03;;
60243;SDS011;46106;51.468;5.814;2023-12-20T11:45:24;24.33;;;3.85;;
60243;SDS011;46106;51.468;5.814;2023-12-20T11:47:51;25.63;;;3.85;;
60243;SDS011;46106;51.468;5.814;2023-12-20T11:50:19;24.80;;;3.45;;
60243;SDS011;46106;51.468;5.814;2023-12-20T11:52:45;28.63;;;4.13;;
60243;SDS011;46106;51.468;5.814;2023-12-20T11:55:11;20.85;;;4.30;;
60243;SDS011;46106;51.468;5.814;2023-12-20T11:57:37;17.83;;;3.75;;
60243;SDS011;46106;51.468;5.814;2023-12-20T12:00:03;25.63;;;4.10;;
60243;SDS011;46106;51.468;5.814;2023-12-20T12:02:29;29.00;;;4.97;;
60243;SDS011;46106;51.468;5.814;2023-12-20T12:04:55;25.63;;;4.60;;
60243;SDS011;46106;51.468;5.814;2023-12-20T12:07:21;32.15;;;6.63;;
60243;SDS011;46106;51.468;5.814;2023-12-20T12:09:47;32.47;;;5.47;;
60243;SDS011;46106;51.468;5.814;2023-12-20T12:12:13;32.30;;;5.47;;
60243;SDS011;46106;51.468;5.814;2023-12-20T12:14:39;15.98;;;3.75;;
60243;SDS011;46106;51.468;5.814;2023-12-20T12:17:14;29.25;;;6.15;;
60243;SDS011;46106;51.468;5.814;2023-12-20T12:19:41;23.35;;;4.35;;
60243;SDS011;46106;51.468;5.814;2023-12-20T12:22:07;28.23;;;4.43;;
60243;SDS011;46106;51.468;5.814;2023-12-20T12:24:36;26.38;;;5.90;;
60243;SDS011;46106;51.468;5.814;2023-12-20T12:27:02;28.63;;;6.00;;
60243;SDS011;46106;51.468;5.814;2023-12-20T12:29:28;19.52;;;5.32;;
60243;SDS011;46106;51.468;5.814;2023-12-20T12:31:54;30.48;;;5.75;;
60243;SDS011;46106;51.468;5.814;2023-12-20T12:34:20;28.25;;;5.20;;
60243;SDS011;46106;51.468;5.814;2023-12-20T12:36:45;16.10;;;4.70;;
60243;SDS011;46106;51.468;5.814;2023-12-20T12:39:14;24.90;;;4.93;;
60243;SDS011;46106;51.468;5.814;2023-12-20T12:41:43;29.70;;;5.65;;
60243;SDS011;46106;51.468;5.814;2023-12-20T12:44:08;21.23;;;5.25;;
60243;SDS011;46106;51.468;5.814;2023-12-20T12:46:33;25.65;;;5.63;;
60243;SDS011;46106;51.468;5.814;2023-12-20T12:48:59;36.03;;;6.90;;
60243;SDS011;46106;51.468;5.814;2023-12-20T12:51:25;28.52;;;5.57;;
60243;SDS011;46106;51.468;5.814;2023-12-20T12:53:50;21.73;;;5.18;;
60243;SDS011;46106;51.468;5.814;2023-12-20T12:56:16;28.25;;;6.35;;
60243;SDS011;46106;51.468;5.814;2023-12-20T12:58:42;27.25;;;7.07;;
60243;SDS011;46106;51.468;5.814;2023-12-20T13:01:07;22.75;;;5.75;;
60243;SDS011;46106;51.468;5.814;2023-12-20T13:03:33;31.35;;;6.40;;
60243;SDS011;46106;51.468;5.814;2023-12-20T13:05:59;35.53;;;6.32;;
60243;SDS011;46106;51.468;5.814;2023-12-20T13:08:25;21.23;;;6.43;;
60243;SDS011;46106;51.468;5.814;2023-12-20T13:10:51;30.13;;;7.50;;
60243;SDS011;46106;51.468;5.814;2023-12-20T13:13:16;32.38;;;6.60;;
60243;SDS011;46106;51.468;5.814;2023-12-20T13:15:42;39.58;;;7.15;;
60243;SDS011;46106;51.468;5.814;2023-12-20T13:18:07;27.20;;;7.38;;
60243;SDS011;46106;51.468;5.814;2023-12-20T13:20:33;30.42;;;7.43;;
60243;SDS011;46106;51.468;5.814;2023-12-20T13:22:58;33.17;;;6.97;;
60243;SDS011;46106;51.468;5.814;2023-12-20T13:25:24;31.83;;;7.40;;
60243;SDS011;46106;51.468;5.814;2023-12-20T13:27:50;33.13;;;6.95;;
60243;SDS011;46106;51.468;5.814;2023-12-20T13:30:16;21.00;;;6.85;;
60243;SDS011;46106;51.468;5.814;2023-12-20T13:32:42;27.17;;;6.80;;
60243;SDS011;46106;51.468;5.814;2023-12-20T13:35:07;27.50;;;6.68;;
60243;SDS011;46106;51.468;5.814;2023-12-20T13:37:33;28.05;;;6.95;;
60243;SDS011;46106;51.468;5.814;2023-12-20T13:39:59;34.42;;;6.90;;
60243;SDS011;46106;51.468;5.814;2023-12-20T13:42:25;23.23;;;6.57;;
60243;SDS011;46106;51.468;5.814;2023-12-20T13:44:52;24.63;;;6.25;;
60243;SDS011;46106;51.468;5.814;2023-12-20T13:47:18;21.95;;;7.03;;
60243;SDS011;46106;51.468;5.814;2023-12-20T13:49:44;26.27;;;7.70;;
60243;SDS011;46106;51.468;5.814;2023-12-20T13:52:10;25.80;;;7.72;;
60243;SDS011;46106;51.468;5.814;2023-12-20T13:54:37;25.50;;;7.05;;
60243;SDS011;46106;51.468;5.814;2023-12-20T13:57:03;25.50;;;7.10;;
60243;SDS011;46106;51.468;5.814;2023-12-20T13:59:28;28.45;;;6.13;;
60243;SDS011;46106;51.468;5.814;2023-12-20T14:01:54;26.33;;;5.80;;
60243;SDS011;46106;51.468;5.814;2023-12-20T14:04:20;24.95;;;6.72;;
60243;SDS011;46106;51.468;5.814;2023-12-20T14:06:46;21.45;;;6.07;;
60243;SDS011;46106;51.468;5.814;2023-12-20T14:09:12;26.58;;;7.40;;
60243;SDS011;46106;51.468;5.814;2023-12-20T14:11:37;28.52;;;7.47;;
60243;SDS011;46106;51.468;5.814;2023-12-20T14:14:06;30.42;;;6.88;;
60243;SDS011;46106;51.468;5.814;2023-12-20T14:16:34;30.35;;;7.68;;
60243;SDS011;46106;51.468;5.814;2023-12-20T14:19:00;20.85;;;6.22;;
60243;SDS011;46106;51.468;5.814;2023-12-20T14:21:28;30.48;;;7.22;;
60243;SDS011;46106;51.468;5.814;2023-12-20T14:23:53;29.17;;;7.18;;
60243;SDS011;46106;51.468;5.814;2023-12-20T14:26:18;29.00;;;6.50;;
60243;SDS011;46106;51.468;5.814;2023-12-20T14:28:44;25.55;;;6.10;;
60243;SDS011;46106;51.468;5.814;2023-12-20T14:31:09;24.63;;;6.88;;
60243;SDS011;46106;51.468;5.814;2023-12-20T14:33:35;27.95;;;6.53;;
60243;SDS011;46106;51.468;5.814;2023-12-20T14:36:02;36.50;;;6.50;;
60243;SDS011;46106;51.468;5.814;2023-12-20T14:38:30;20.17;;;5.90;;
60243;SDS011;46106;51.468;5.814;2023-12-20T14:40:56;26.80;;;6.13;;
60243;SDS011;46106;51.468;5.814;2023-12-20T14:43:21;34.08;;;6.63;;